Nashotah, WI (53058)

7:22 PM CDT on April 01, 2015 (GMT -0500)
Okauchee WI | | Change Station
CLOSE
Current Station
Personal Weather Station
Location: Okauchee Lake, WI
Elevation: 906 ft
Nearby Weather Stations

Elev 906 ft 43.11 °N, 88.44 °W | Updated 16 seconds ago

Partly Cloudy
Partly Cloudy
78.3 °F
Feels Like 78 °F
N
0.0
Wind Variable Wind from South
Gusts 0.0 mph

Today
High -- | Low -- °F
--% Chance of Precip.
Yesterday
High -- | Low -- °F
Precip. -- in
6:35 AM 7:19 PM
Waxing Gibbous, 94% visible
Pressure 29.81 in
Visibility 10.0 miles
Clouds Mostly Cloudy 20000 ft
Heat Index 78 °F
Dew Point 47 °F
Humidity 33%
Rainfall 0.00 in
Snow Depth Not available.
UV 0 out of 12
Pollen 7.20 out of 12
Air Quality Not available.
Flu Activity Not available.
METAR KUES 012345Z 18012G17KT 10SM BKN200 20/02 A2981

More Conditions Fewer Conditions

Pressure 29.81 in
Visibility 10.0 miles
Clouds Mostly Cloudy 20000 ft
Heat Index 78 °F
Dew Point 47 °F
Humidity 33%
Rainfall 0.00 in
Snow Depth Not available.
UV 0 out of 12
Pollen 7.20 out of 12
Air Quality Not available.
Flu Activity Not available.
METAR KUES 012345Z 18012G17KT 10SM BKN200 20/02 A2981

More Conditions Fewer Conditions

10-Day Weather Forecast

Almanac

Astronomy

Apr. 01, 2015 Rise Set
Actual Time
Civil Twilight
Nautical Twilight
Astronomical Twilight
Moon
Length of Visible Light
Length of Day
Tomorrow will be .
, % of the Moon is Illuminated

Today's Extremes

State Highs State Lows

Community

WunderPhotos

Upload Photos

1,810,130 photos uploaded!

WunderBlogs® & News

Nearby

Air Quality

  Air Quality AQ Index Pollutant
Not available.

Snow Depth

Station Depth Elevation

Earthquake Activity

City Distance Mag. Time & Date
Minimum magnitude displayed is 2.5.

Coastal Water Temperatures

Place Temperature

Stations

Nearby Weather Stations

Station Location Temp. Windchill Dew Point Humidity Wind Precip. Elev Updated Type